METAR Data
IDs: Format: Raw Decoded Include TAF

Data at: 2303 UTC 26 Feb 2020

METAR for:PANC (Anchorage Intl, AK, US)
Text:PANC 262253Z 05006KT 10SM FEW200 M04/M12 A2949 RMK AO2 SLP989 T10441122
Temperature: -4.4°C ( 24°F)
Dewpoint:-12.2°C ( 10°F) [RH = 54%]
Pressure (altimeter):29.49 inches Hg ( 998.7 mb) [Sea level pressure: 998.9 mb]
Winds:from the NE (50 degrees) at 7 MPH (6 knots; 3.1 m/s)
Visibility:10 or more sm (16+ km)
Ceiling:at least 12,000 feet AGL
Clouds: few clouds at 20000 feet AGL
Text:PANC 262153Z 05007KT 10SM SCT200 M05/M12 A2949 RMK AO2 SLP988 T10501122
Temperature: -5.0°C ( 23°F)
Dewpoint:-12.2°C ( 10°F) [RH = 57%]
Pressure (altimeter):29.49 inches Hg ( 998.7 mb) [Sea level pressure: 998.8 mb]
Winds:from the NE (50 degrees) at 8 MPH (7 knots; 3.6 m/s)
Visibility:10 or more sm (16+ km)
Ceiling:at least 12,000 feet AGL
Clouds: scattered clouds at 20000 feet AGL
Text:PANC 262053Z 03007KT 10SM SCT200 M05/M13 A2949 RMK AO2 SLP990 T10501128 52003
Temperature: -5.0°C ( 23°F)
Dewpoint:-12.8°C ( 9°F) [RH = 54%]
Pressure (altimeter):29.49 inches Hg ( 998.7 mb) [Sea level pressure: 999.0 mb]
Winds:from the NNE (30 degrees) at 8 MPH (7 knots; 3.6 m/s)
Visibility:10 or more sm (16+ km)
Ceiling:at least 12,000 feet AGL
Clouds: scattered clouds at 20000 feet AGL
Text:PANC 261953Z 01009KT 10SM FEW035 BKN170 M06/M13 A2949 RMK AO2 SLP988 T10561133
Temperature: -5.6°C ( 22°F)
Dewpoint:-13.3°C ( 8°F) [RH = 55%]
Pressure (altimeter):29.49 inches Hg ( 998.7 mb) [Sea level pressure: 998.8 mb]
Winds:from the N (10 degrees) at 10 MPH (9 knots; 4.6 m/s)
Visibility:10 or more sm (16+ km)
Ceiling:17000 feet AGL
Clouds: few clouds at 3500 feet AGL, broken clouds at 17000 feet AGL
Text:PANC 261853Z 01008KT 10SM FEW030 BKN170 M07/M14 A2949 RMK AO2 SLP988 T10671139
Temperature: -6.7°C ( 20°F)
Dewpoint:-13.9°C ( 7°F) [RH = 56%]
Pressure (altimeter):29.49 inches Hg ( 998.7 mb) [Sea level pressure: 998.8 mb]
Winds:from the N (10 degrees) at 9 MPH (8 knots; 4.1 m/s)
Visibility:10 or more sm (16+ km)
Ceiling:17000 feet AGL
Clouds: few clouds at 3000 feet AGL, broken clouds at 17000 feet AGL
Text:PANC 261753Z 01011KT 10SM FEW030 BKN170 M07/M14 A2948 RMK AO2 SLP987 4/020 T10721139 11061 21072 56003
Temperature: -7.2°C ( 19°F)
Dewpoint:-13.9°C ( 7°F) [RH = 59%]
Pressure (altimeter):29.48 inches Hg ( 998.4 mb) [Sea level pressure: 998.7 mb]
Winds:from the N (10 degrees) at 13 MPH (11 knots; 5.7 m/s)
Visibility:10 or more sm (16+ km)
Ceiling:17000 feet AGL
Clouds: few clouds at 3000 feet AGL, broken clouds at 17000 feet AGL

TAF for:PANC (Anchorage Intl, AK, US) issued at 2056 UTC 26 Feb 2020
Text:PANC 262056Z 2621/2724 01010KT P6SM SCT070 BKN150
Forecast period:2100 UTC 26 February 2020 to 0000 UTC 28 February 2020
Forecast type:FROM: standard forecast or significant change
Winds:from the N (10 degrees) at 12 MPH (10 knots; 5.1 m/s)
Visibility:6 or more sm (10+ km)
Ceiling:15000 feet AGL
Clouds: scattered clouds at 7000 feet AGL, broken clouds at 15000 feet AGL